sensor_id;sensor_type;location;lat;lon;timestamp;temperature;humidity
9941;DHT22;5009;50.656;7.188;2023-10-08T04:02:35;13.90;99.90
9941;DHT22;5009;50.656;7.188;2023-10-08T04:05:20;13.90;99.90
9941;DHT22;5009;50.656;7.188;2023-10-08T04:07:47;13.90;99.90
9941;DHT22;5009;50.656;7.188;2023-10-08T04:10:24;13.90;99.90
9941;DHT22;5009;50.656;7.188;2023-10-08T04:13:08;13.90;99.90
9941;DHT22;5009;50.656;7.188;2023-10-08T04:15:38;14.00;99.90
9941;DHT22;5009;50.656;7.188;2023-10-08T04:18:07;13.90;99.90
9941;DHT22;5009;50.656;7.188;2023-10-08T04:20:33;13.90;99.90
9941;DHT22;5009;50.656;7.188;2023-10-08T04:23:03;14.00;99.90
9941;DHT22;5009;50.656;7.188;2023-10-08T04:25:30;13.90;99.90
9941;DHT22;5009;50.656;7.188;2023-10-08T04:28:00;14.00;99.90
9941;DHT22;5009;50.656;7.188;2023-10-08T04:30:27;14.00;99.90
9941;DHT22;5009;50.656;7.188;2023-10-08T04:33:02;14.00;99.90
9941;DHT22;5009;50.656;7.188;2023-10-08T04:35:35;14.00;99.90
9941;DHT22;5009;50.656;7.188;2023-10-08T04:38:27;14.00;99.90
9941;DHT22;5009;50.656;7.188;2023-10-08T04:40:54;13.90;99.90
9941;DHT22;5009;50.656;7.188;2023-10-08T04:43:24;13.90;99.90
9941;DHT22;5009;50.656;7.188;2023-10-08T04:45:57;14.00;99.90
9941;DHT22;5009;50.656;7.188;2023-10-08T04:48:26;14.00;99.90
9941;DHT22;5009;50.656;7.188;2023-10-08T04:50:55;14.00;99.90
9941;DHT22;5009;50.656;7.188;2023-10-08T04:53:31;13.90;99.90
9941;DHT22;5009;50.656;7.188;2023-10-08T04:56:01;14.00;99.90
9941;DHT22;5009;50.656;7.188;2023-10-08T04:58:43;13.90;99.90
9941;DHT22;5009;50.656;7.188;2023-10-08T05:01:13;13.90;99.90
9941;DHT22;5009;50.656;7.188;2023-10-08T05:04:04;13.90;99.90
9941;DHT22;5009;50.656;7.188;2023-10-08T05:06:31;14.00;99.90
9941;DHT22;5009;50.656;7.188;2023-10-08T05:09:21;14.00;99.90
9941;DHT22;5009;50.656;7.188;2023-10-08T05:11:47;13.90;99.90
9941;DHT22;5009;50.656;7.188;2023-10-08T05:14:20;14.00;99.90
9941;DHT22;5009;50.656;7.188;2023-10-08T05:17:02;14.00;99.90
9941;DHT22;5009;50.656;7.188;2023-10-08T05:19:37;14.00;99.90
9941;DHT22;5009;50.656;7.188;2023-10-08T05:22:15;14.00;99.90
9941;DHT22;5009;50.656;7.188;2023-10-08T05:25:04;14.00;99.90
9941;DHT22;5009;50.656;7.188;2023-10-08T05:27:43;14.00;99.90
9941;DHT22;5009;50.656;7.188;2023-10-08T05:30:18;14.00;99.90
9941;DHT22;5009;50.656;7.188;2023-10-08T05:32:52;14.00;99.90
9941;DHT22;5009;50.656;7.188;2023-10-08T05:35:34;14.00;99.90
9941;DHT22;5009;50.656;7.188;2023-10-08T05:38:09;14.00;99.90
9941;DHT22;5009;50.656;7.188;2023-10-08T05:41:01;14.00;99.90
9941;DHT22;5009;50.656;7.188;2023-10-08T05:43:34;14.00;99.90
9941;DHT22;5009;50.656;7.188;2023-10-08T05:46:06;14.00;99.90
9941;DHT22;5009;50.656;7.188;2023-10-08T05:48:53;14.00;99.90
9941;DHT22;5009;50.656;7.188;2023-10-08T05:51:32;13.90;99.90
9941;DHT22;5009;50.656;7.188;2023-10-08T05:56:53;13.90;99.90
9941;DHT22;5009;50.656;7.188;2023-10-08T05:59:45;13.90;99.90
9941;DHT22;5009;50.656;7.188;2023-10-08T06:02:25;13.90;99.90
9941;DHT22;5009;50.656;7.188;2023-10-08T06:05:08;14.00;99.90
9941;DHT22;5009;50.656;7.188;2023-10-08T06:07:44;14.00;99.90
9941;DHT22;5009;50.656;7.188;2023-10-08T06:10:20;14.00;99.90
9941;DHT22;5009;50.656;7.188;2023-10-08T06:12:52;14.00;99.90
9941;DHT22;5009;50.656;7.188;2023-10-08T06:15:27;14.00;99.90
9941;DHT22;5009;50.656;7.188;2023-10-08T06:18:10;14.10;99.90
9941;DHT22;5009;50.656;7.188;2023-10-08T06:20:36;14.10;99.90
9941;DHT22;5009;50.656;7.188;2023-10-08T06:23:04;14.10;99.90
9941;DHT22;5009;50.656;7.188;2023-10-08T06:25:33;14.20;99.90
9941;DHT22;5009;50.656;7.188;2023-10-08T06:27:58;14.20;99.90
9941;DHT22;5009;50.656;7.188;2023-10-08T06:30:24;14.20;99.90
9941;DHT22;5009;50.656;7.188;2023-10-08T06:32:55;14.30;99.90
9941;DHT22;5009;50.656;7.188;2023-10-08T06:35:21;14.30;99.90
9941;DHT22;5009;50.656;7.188;2023-10-08T06:37:51;14.30;99.90
9941;DHT22;5009;50.656;7.188;2023-10-08T06:40:20;14.40;99.90
9941;DHT22;5009;50.656;7.188;2023-10-08T06:43:09;14.40;99.90
9941;DHT22;5009;50.656;7.188;2023-10-08T06:45:44;14.40;99.90
9941;DHT22;5009;50.656;7.188;2023-10-08T06:48:10;14.40;99.90
9941;DHT22;5009;50.656;7.188;2023-10-08T06:50:44;14.40;99.90
9941;DHT22;5009;50.656;7.188;2023-10-08T06:53:11;14.50;99.90
9941;DHT22;5009;50.656;7.188;2023-10-08T06:55:39;14.50;99.90
9941;DHT22;5009;50.656;7.188;2023-10-08T06:58:05;14.50;99.90
9941;DHT22;5009;50.656;7.188;2023-10-08T07:00:34;14.60;99.90
9941;DHT22;5009;50.656;7.188;2023-10-08T07:03:12;14.60;99.90
9941;DHT22;5009;50.656;7.188;2023-10-08T07:05:46;14.70;99.90
9941;DHT22;5009;50.656;7.188;2023-10-08T07:08:30;14.80;99.90
9941;DHT22;5009;50.656;7.188;2023-10-08T07:10:58;14.90;99.90
9941;DHT22;5009;50.656;7.188;2023-10-08T07:13:25;15.00;99.90
9941;DHT22;5009;50.656;7.188;2023-10-08T07:15:55;15.00;99.90
9941;DHT22;5009;50.656;7.188;2023-10-08T07:18:20;15.00;99.90
9941;DHT22;5009;50.656;7.188;2023-10-08T07:20:54;15.10;99.90
9941;DHT22;5009;50.656;7.188;2023-10-08T07:23:21;15.10;99.90
9941;DHT22;5009;50.656;7.188;2023-10-08T07:25:58;15.00;99.90
9941;DHT22;5009;50.656;7.188;2023-10-08T07:28:44;15.00;99.90
9941;DHT22;5009;50.656;7.188;2023-10-08T07:31:14;15.00;99.90
9941;DHT22;5009;50.656;7.188;2023-10-08T07:33:43;15.00;99.90
9941;DHT22;5009;50.656;7.188;2023-10-08T07:36:12;15.00;99.90
9941;DHT22;5009;50.656;7.188;2023-10-08T07:38:42;15.10;99.90
9941;DHT22;5009;50.656;7.188;2023-10-08T07:41:11;15.10;99.90
9941;DHT22;5009;50.656;7.188;2023-10-08T07:43:44;15.20;99.90
9941;DHT22;5009;50.656;7.188;2023-10-08T07:46:10;15.20;99.90
9941;DHT22;5009;50.656;7.188;2023-10-08T07:48:36;15.40;99.90
9941;DHT22;5009;50.656;7.188;2023-10-08T07:51:07;15.50;99.90
9941;DHT22;5009;50.656;7.188;2023-10-08T07:53:33;15.50;99.90
9941;DHT22;5009;50.656;7.188;2023-10-08T07:56:07;15.50;99.90
9941;DHT22;5009;50.656;7.188;2023-10-08T07:58:37;15.60;99.90
9941;DHT22;5009;50.656;7.188;2023-10-08T08:01:06;15.60;99.90
9941;DHT22;5009;50.656;7.188;2023-10-08T08:03:33;15.60;99.90
9941;DHT22;5009;50.656;7.188;2023-10-08T08:06:05;15.70;99.90
9941;DHT22;5009;50.656;7.188;2023-10-08T08:08:35;15.90;99.90
9941;DHT22;5009;50.656;7.188;2023-10-08T08:11:05;16.20;99.90
9941;DHT22;5009;50.656;7.188;2023-10-08T08:13:35;16.60;99.90
9941;DHT22;5009;50.656;7.188;2023-10-08T08:16:01;17.00;99.90
9941;DHT22;5009;50.656;7.188;2023-10-08T08:18:46;17.30;99.90
9941;DHT22;5009;50.656;7.188;2023-10-08T08:21:12;17.50;99.90
9941;DHT22;5009;50.656;7.188;2023-10-08T08:23:44;17.60;99.90
9941;DHT22;5009;50.656;7.188;2023-10-08T08:26:16;17.60;99.90
9941;DHT22;5009;50.656;7.188;2023-10-08T08:28:56;17.50;99.90
9941;DHT22;5009;50.656;7.188;2023-10-08T08:31:23;17.50;99.90
9941;DHT22;5009;50.656;7.188;2023-10-08T08:33:49;17.40;99.90
9941;DHT22;5009;50.656;7.188;2023-10-08T08:36:31;17.60;99.90
9941;DHT22;5009;50.656;7.188;2023-10-08T08:39:04;17.80;99.90
9941;DHT22;5009;50.656;7.188;2023-10-08T08:41:30;18.00;99.90
9941;DHT22;5009;50.656;7.188;2023-10-08T08:43:56;18.30;99.90
9941;DHT22;5009;50.656;7.188;2023-10-08T08:46:35;18.70;99.90
9941;DHT22;5009;50.656;7.188;2023-10-08T08:49:07;19.00;99.90
9941;DHT22;5009;50.656;7.188;2023-10-08T08:51:37;19.20;99.90
9941;DHT22;5009;50.656;7.188;2023-10-08T08:54:04;19.50;99.90
9941;DHT22;5009;50.656;7.188;2023-10-08T08:56:38;19.80;99.90
9941;DHT22;5009;50.656;7.188;2023-10-08T08:59:06;20.00;99.90
9941;DHT22;5009;50.656;7.188;2023-10-08T09:01:32;20.20;99.90
9941;DHT22;5009;50.656;7.188;2023-10-08T09:04:04;20.20;99.90
9941;DHT22;5009;50.656;7.188;2023-10-08T09:06:34;20.30;99.90
9941;DHT22;5009;50.656;7.188;2023-10-08T09:09:01;20.40;99.90
9941;DHT22;5009;50.656;7.188;2023-10-08T09:11:45;20.50;99.90
9941;DHT22;5009;50.656;7.188;2023-10-08T09:14:11;20.70;99.90
9941;DHT22;5009;50.656;7.188;2023-10-08T09:16:36;20.90;98.50
9941;DHT22;5009;50.656;7.188;2023-10-08T09:19:02;21.00;98.60
9941;DHT22;5009;50.656;7.188;2023-10-08T09:21:29;21.20;97.50
9941;DHT22;5009;50.656;7.188;2023-10-08T09:23:55;21.30;96.90
9941;DHT22;5009;50.656;7.188;2023-10-08T09:26:25;21.30;96.50
9941;DHT22;5009;50.656;7.188;2023-10-08T09:28:52;21.30;96.70
9941;DHT22;5009;50.656;7.188;2023-10-08T09:31:18;21.30;96.90
9941;DHT22;5009;50.656;7.188;2023-10-08T09:33:56;21.30;96.80
9941;DHT22;5009;50.656;7.188;2023-10-08T09:36:22;21.40;96.70
9941;DHT22;5009;50.656;7.188;2023-10-08T09:38:59;21.40;96.70
9941;DHT22;5009;50.656;7.188;2023-10-08T09:41:26;21.30;96.30
9941;DHT22;5009;50.656;7.188;2023-10-08T09:43:52;21.00;96.20
9941;DHT22;5009;50.656;7.188;2023-10-08T09:46:19;21.00;97.20
9941;DHT22;5009;50.656;7.188;2023-10-08T09:48:52;21.10;97.50
9941;DHT22;5009;50.656;7.188;2023-10-08T09:51:20;21.10;96.90
9941;DHT22;5009;50.656;7.188;2023-10-08T09:54:10;21.10;97.20
9941;DHT22;5009;50.656;7.188;2023-10-08T09:56:36;21.10;97.00
9941;DHT22;5009;50.656;7.188;2023-10-08T09:59:02;20.90;97.10
9941;DHT22;5009;50.656;7.188;2023-10-08T10:01:28;20.90;97.90
9941;DHT22;5009;50.656;7.188;2023-10-08T10:03:57;20.90;98.20
9941;DHT22;5009;50.656;7.188;2023-10-08T10:06:26;20.80;97.90
9941;DHT22;5009;50.656;7.188;2023-10-08T10:08:56;20.80;98.70
9941;DHT22;5009;50.656;7.188;2023-10-08T10:11:30;20.80;97.70
9941;DHT22;5009;50.656;7.188;2023-10-08T10:14:00;20.80;97.70
9941;DHT22;5009;50.656;7.188;2023-10-08T10:16:26;20.70;98.40
9941;DHT22;5009;50.656;7.188;2023-10-08T10:18:55;20.70;98.30
9941;DHT22;5009;50.656;7.188;2023-10-08T10:21:32;20.60;98.10
9941;DHT22;5009;50.656;7.188;2023-10-08T10:23:58;20.50;98.50
9941;DHT22;5009;50.656;7.188;2023-10-08T10:26:33;20.40;98.50
9941;DHT22;5009;50.656;7.188;2023-10-08T10:31:53;20.20;98.70
9941;DHT22;5009;50.656;7.188;2023-10-08T10:34:21;20.20;99.40
9941;DHT22;5009;50.656;7.188;2023-10-08T10:36:49;20.30;99.90
9941;DHT22;5009;50.656;7.188;2023-10-08T10:39:19;20.40;99.90
9941;DHT22;5009;50.656;7.188;2023-10-08T10:42:00;20.30;99.00
9941;DHT22;5009;50.656;7.188;2023-10-08T10:44:27;20.30;99.20
9941;DHT22;5009;50.656;7.188;2023-10-08T10:46:55;20.30;99.60
9941;DHT22;5009;50.656;7.188;2023-10-08T10:49:39;20.30;99.70
9941;DHT22;5009;50.656;7.188;2023-10-08T10:52:19;20.30;99.90
9941;DHT22;5009;50.656;7.188;2023-10-08T10:55:04;20.40;99.90
9941;DHT22;5009;50.656;7.188;2023-10-08T10:57:54;20.50;99.90
9941;DHT22;5009;50.656;7.188;2023-10-08T11:00:37;20.40;99.90
9941;DHT22;5009;50.656;7.188;2023-10-08T11:03:04;20.50;99.90
9941;DHT22;5009;50.656;7.188;2023-10-08T11:05:37;20.60;99.90
9941;DHT22;5009;50.656;7.188;2023-10-08T11:08:05;20.50;99.20
9941;DHT22;5009;50.656;7.188;2023-10-08T11:10:33;20.70;99.90
9941;DHT22;5009;50.656;7.188;2023-10-08T11:13:00;20.80;99.70
9941;DHT22;5009;50.656;7.188;2023-10-08T11:15:30;20.80;99.90
9941;DHT22;5009;50.656;7.188;2023-10-08T11:18:11;20.90;99.90
9941;DHT22;5009;50.656;7.188;2023-10-08T11:20:37;20.80;99.20
9941;DHT22;5009;50.656;7.188;2023-10-08T11:23:06;21.00;99.30
9941;DHT22;5009;50.656;7.188;2023-10-08T11:25:55;20.90;99.00
9941;DHT22;5009;50.656;7.188;2023-10-08T11:28:21;20.80;99.40
9941;DHT22;5009;50.656;7.188;2023-10-08T11:30:48;20.90;99.40
9941;DHT22;5009;50.656;7.188;2023-10-08T11:33:17;21.00;99.30
9941;DHT22;5009;50.656;7.188;2023-10-08T11:36:16;21.10;99.30
9941;DHT22;5009;50.656;7.188;2023-10-08T11:38:46;21.00;99.10
9941;DHT22;5009;50.656;7.188;2023-10-08T11:41:16;21.00;99.40
9941;DHT22;5009;50.656;7.188;2023-10-08T11:43:52;20.90;99.20
9941;DHT22;5009;50.656;7.188;2023-10-08T11:46:25;20.90;99.50
9941;DHT22;5009;50.656;7.188;2023-10-08T11:48:58;21.00;99.60
9941;DHT22;5009;50.656;7.188;2023-10-08T11:51:32;20.90;99.60
9941;DHT22;5009;50.656;7.188;2023-10-08T11:53:59;20.90;99.50
9941;DHT22;5009;50.656;7.188;2023-10-08T11:56:26;20.80;99.80
9941;DHT22;5009;50.656;7.188;2023-10-08T11:58:51;20.80;99.90
9941;DHT22;5009;50.656;7.188;2023-10-08T12:01:18;20.90;99.60
9941;DHT22;5009;50.656;7.188;2023-10-08T12:03:44;21.00;99.40
9941;DHT22;5009;50.656;7.188;2023-10-08T12:06:13;20.90;99.80
9941;DHT22;5009;50.656;7.188;2023-10-08T12:08:47;20.90;99.90
9941;DHT22;5009;50.656;7.188;2023-10-08T12:11:13;20.90;99.90
9941;DHT22;5009;50.656;7.188;2023-10-08T12:13:40;20.90;99.60
9941;DHT22;5009;50.656;7.188;2023-10-08T12:16:13;20.90;99.70
9941;DHT22;5009;50.656;7.188;2023-10-08T12:18:44;20.90;99.50
9941;DHT22;5009;50.656;7.188;2023-10-08T12:21:16;20.90;99.70
9941;DHT22;5009;50.656;7.188;2023-10-08T12:23:43;20.90;99.60
9941;DHT22;5009;50.656;7.188;2023-10-08T12:26:10;21.00;99.50
9941;DHT22;5009;50.656;7.188;2023-10-08T12:28:41;21.10;99.40
9941;DHT22;5009;50.656;7.188;2023-10-08T12:31:10;21.30;98.80
9941;DHT22;5009;50.656;7.188;2023-10-08T12:33:36;21.30;98.90
9941;DHT22;5009;50.656;7.188;2023-10-08T12:36:02;21.50;99.10
9941;DHT22;5009;50.656;7.188;2023-10-08T12:38:36;21.50;99.00
9941;DHT22;5009;50.656;7.188;2023-10-08T12:41:02;21.50;98.80
9941;DHT22;5009;50.656;7.188;2023-10-08T12:43:40;21.50;98.80
9941;DHT22;5009;50.656;7.188;2023-10-08T12:46:08;21.50;99.10
9941;DHT22;5009;50.656;7.188;2023-10-08T12:48:41;21.60;98.70
9941;DHT22;5009;50.656;7.188;2023-10-08T12:51:09;21.60;99.20
9941;DHT22;5009;50.656;7.188;2023-10-08T12:53:37;21.60;99.00
9941;DHT22;5009;50.656;7.188;2023-10-08T12:56:06;21.50;99.10
9941;DHT22;5009;50.656;7.188;2023-10-08T12:58:34;21.50;99.00
9941;DHT22;5009;50.656;7.188;2023-10-08T13:01:16;21.50;99.00
9941;DHT22;5009;50.656;7.188;2023-10-08T13:03:44;21.60;98.90
9941;DHT22;5009;50.656;7.188;2023-10-08T13:06:20;21.50;98.90
9941;DHT22;5009;50.656;7.188;2023-10-08T13:08:59;21.50;99.00
9941;DHT22;5009;50.656;7.188;2023-10-08T13:11:28;21.40;99.20
9941;DHT22;5009;50.656;7.188;2023-10-08T13:13:56;21.50;99.20
9941;DHT22;5009;50.656;7.188;2023-10-08T13:16:27;21.60;99.20
9941;DHT22;5009;50.656;7.188;2023-10-08T13:18:57;21.60;99.10
9941;DHT22;5009;50.656;7.188;2023-10-08T13:21:26;21.60;99.00
9941;DHT22;5009;50.656;7.188;2023-10-08T13:23:54;21.60;98.90
9941;DHT22;5009;50.656;7.188;2023-10-08T13:26:22;21.60;98.90
9941;DHT22;5009;50.656;7.188;2023-10-08T13:28:50;21.60;99.30
9941;DHT22;5009;50.656;7.188;2023-10-08T13:31:16;21.60;99.30
9941;DHT22;5009;50.656;7.188;2023-10-08T13:33:44;21.60;99.10
9941;DHT22;5009;50.656;7.188;2023-10-08T13:36:15;21.70;99.30
9941;DHT22;5009;50.656;7.188;2023-10-08T13:38:41;21.70;99.00
9941;DHT22;5009;50.656;7.188;2023-10-08T13:41:09;21.80;98.50
9941;DHT22;5009;50.656;7.188;2023-10-08T13:43:42;21.80;98.50
9941;DHT22;5009;50.656;7.188;2023-10-08T13:46:12;21.90;98.80
9941;DHT22;5009;50.656;7.188;2023-10-08T13:48:47;21.90;98.30
9941;DHT22;5009;50.656;7.188;2023-10-08T13:51:17;21.90;98.20
9941;DHT22;5009;50.656;7.188;2023-10-08T13:53:58;21.90;98.20
9941;DHT22;5009;50.656;7.188;2023-10-08T13:56:29;21.80;98.00
9941;DHT22;5009;50.656;7.188;2023-10-08T13:58:58;21.90;98.20
9941;DHT22;5009;50.656;7.188;2023-10-08T14:01:41;21.90;98.30
9941;DHT22;5009;50.656;7.188;2023-10-08T14:04:09;21.90;98.30
9941;DHT22;5009;50.656;7.188;2023-10-08T14:06:38;21.90;98.50
9941;DHT22;5009;50.656;7.188;2023-10-08T14:09:13;21.90;98.80
9941;DHT22;5009;50.656;7.188;2023-10-08T14:11:46;22.00;98.90
9941;DHT22;5009;50.656;7.188;2023-10-08T14:14:12;22.00;99.10
9941;DHT22;5009;50.656;7.188;2023-10-08T14:16:41;22.00;99.00
9941;DHT22;5009;50.656;7.188;2023-10-08T14:19:11;22.10;99.00
9941;DHT22;5009;50.656;7.188;2023-10-08T14:21:41;22.10;99.30
9941;DHT22;5009;50.656;7.188;2023-10-08T14:24:20;22.10;99.20
9941;DHT22;5009;50.656;7.188;2023-10-08T14:26:47;22.10;99.20
9941;DHT22;5009;50.656;7.188;2023-10-08T14:29:20;22.10;98.90
9941;DHT22;5009;50.656;7.188;2023-10-08T14:31:46;22.10;98.90
9941;DHT22;5009;50.656;7.188;2023-10-08T14:34:14;22.10;98.70
9941;DHT22;5009;50.656;7.188;2023-10-08T14:36:49;22.00;98.50
9941;DHT22;5009;50.656;7.188;2023-10-08T14:39:34;22.00;98.60
9941;DHT22;5009;50.656;7.188;2023-10-08T14:42:19;22.00;98.30
9941;DHT22;5009;50.656;7.188;2023-10-08T14:45:04;21.90;98.30
9941;DHT22;5009;50.656;7.188;2023-10-08T14:47:39;21.80;98.10
9941;DHT22;5009;50.656;7.188;2023-10-08T14:50:05;21.80;98.30
9941;DHT22;5009;50.656;7.188;2023-10-08T14:52:32;21.70;98.50
9941;DHT22;5009;50.656;7.188;2023-10-08T14:54:58;21.70;98.70
9941;DHT22;5009;50.656;7.188;2023-10-08T14:57:24;21.60;98.90
9941;DHT22;5009;50.656;7.188;2023-10-08T14:59:52;21.60;99.20
9941;DHT22;5009;50.656;7.188;2023-10-08T15:02:17;21.50;99.40
9941;DHT22;5009;50.656;7.188;2023-10-08T15:04:43;21.50;99.60
9941;DHT22;5009;50.656;7.188;2023-10-08T15:07:09;21.40;99.90
9941;DHT22;5009;50.656;7.188;2023-10-08T15:09:37;21.40;99.90
9941;DHT22;5009;50.656;7.188;2023-10-08T15:12:05;21.30;99.90
9941;DHT22;5009;50.656;7.188;2023-10-08T15:14:31;21.30;99.90
9941;DHT22;5009;50.656;7.188;2023-10-08T15:16:58;21.30;99.90
9941;DHT22;5009;50.656;7.188;2023-10-08T15:19:24;21.30;99.90
9941;DHT22;5009;50.656;7.188;2023-10-08T15:21:51;21.30;99.90
9941;DHT22;5009;50.656;7.188;2023-10-08T15:24:20;21.20;99.90
9941;DHT22;5009;50.656;7.188;2023-10-08T15:26:54;21.20;99.90
9941;DHT22;5009;50.656;7.188;2023-10-08T15:29:21;21.20;99.90
9941;DHT22;5009;50.656;7.188;2023-10-08T15:31:47;21.10;99.90
9941;DHT22;5009;50.656;7.188;2023-10-08T15:34:14;21.20;99.90
9941;DHT22;5009;50.656;7.188;2023-10-08T15:36:40;21.20;99.90
9941;DHT22;5009;50.656;7.188;2023-10-08T15:39:06;21.20;99.90
9941;DHT22;5009;50.656;7.188;2023-10-08T15:41:37;21.20;99.90
9941;DHT22;5009;50.656;7.188;2023-10-08T15:44:04;21.20;99.90
9941;DHT22;5009;50.656;7.188;2023-10-08T15:46:31;21.20;99.90
9941;DHT22;5009;50.656;7.188;2023-10-08T15:48:56;21.20;99.90
9941;DHT22;5009;50.656;7.188;2023-10-08T15:51:22;21.20;99.90
9941;DHT22;5009;50.656;7.188;2023-10-08T15:53:50;21.20;99.90
9941;DHT22;5009;50.656;7.188;2023-10-08T15:56:16;21.20;99.90
9941;DHT22;5009;50.656;7.188;2023-10-08T15:58:41;21.20;99.90
9941;DHT22;5009;50.656;7.188;2023-10-08T16:01:07;21.20;99.90
9941;DHT22;5009;50.656;7.188;2023-10-08T16:03:32;21.10;99.90
9941;DHT22;5009;50.656;7.188;2023-10-08T16:05:58;21.10;99.90
9941;DHT22;5009;50.656;7.188;2023-10-08T16:08:24;21.10;99.90
9941;DHT22;5009;50.656;7.188;2023-10-08T16:10:49;21.00;99.90
9941;DHT22;5009;50.656;7.188;2023-10-08T16:13:15;20.90;99.90
9941;DHT22;5009;50.656;7.188;2023-10-08T16:15:40;20.90;99.90
9941;DHT22;5009;50.656;7.188;2023-10-08T16:20:34;20.70;99.90
9941;DHT22;5009;50.656;7.188;2023-10-08T16:23:01;20.60;99.90
9941;DHT22;5009;50.656;7.188;2023-10-08T16:25:27;20.40;99.90
9941;DHT22;5009;50.656;7.188;2023-10-08T16:27:52;20.40;99.90
9941;DHT22;5009;50.656;7.188;2023-10-08T16:30:22;20.30;99.90
9941;DHT22;5009;50.656;7.188;2023-10-08T16:32:55;20.30;99.90
9941;DHT22;5009;50.656;7.188;2023-10-08T16:35:21;20.10;99.90
9941;DHT22;5009;50.656;7.188;2023-10-08T16:37:49;20.00;99.90
9941;DHT22;5009;50.656;7.188;2023-10-08T16:40:15;19.90;99.90
9941;DHT22;5009;50.656;7.188;2023-10-08T16:42:41;19.80;99.90
9941;DHT22;5009;50.656;7.188;2023-10-08T16:45:07;19.80;99.90
9941;DHT22;5009;50.656;7.188;2023-10-08T16:47:33;19.70;99.90
9941;DHT22;5009;50.656;7.188;2023-10-08T16:49:59;19.60;99.90
9941;DHT22;5009;50.656;7.188;2023-10-08T16:52:26;19.60;99.90
9941;DHT22;5009;50.656;7.188;2023-10-08T16:54:51;19.50;99.90
9941;DHT22;5009;50.656;7.188;2023-10-08T16:57:23;19.40;99.90
9941;DHT22;5009;50.656;7.188;2023-10-08T16:59:49;19.30;99.90
9941;DHT22;5009;50.656;7.188;2023-10-08T17:02:15;19.20;99.90
9941;DHT22;5009;50.656;7.188;2023-10-08T17:04:42;19.20;99.90
9941;DHT22;5009;50.656;7.188;2023-10-08T17:07:07;19.10;99.90
9941;DHT22;5009;50.656;7.188;2023-10-08T17:09:33;19.00;99.90
9941;DHT22;5009;50.656;7.188;2023-10-08T17:12:00;18.90;99.90
9941;DHT22;5009;50.656;7.188;2023-10-08T17:14:26;18.80;99.90
9941;DHT22;5009;50.656;7.188;2023-10-08T17:16:52;18.80;99.90
9941;DHT22;5009;50.656;7.188;2023-10-08T17:19:17;18.80;99.90
9941;DHT22;5009;50.656;7.188;2023-10-08T17:21:44;18.70;99.90
9941;DHT22;5009;50.656;7.188;2023-10-08T17:24:15;18.60;99.90
9941;DHT22;5009;50.656;7.188;2023-10-08T17:26:40;18.60;99.90
9941;DHT22;5009;50.656;7.188;2023-10-08T17:29:07;18.50;99.90
9941;DHT22;5009;50.656;7.188;2023-10-08T17:31:33;18.40;99.90
9941;DHT22;5009;50.656;7.188;2023-10-08T17:34:00;18.40;99.90
9941;DHT22;5009;50.656;7.188;2023-10-08T17:36:31;18.30;99.90
9941;DHT22;5009;50.656;7.188;2023-10-08T17:39:00;18.20;99.90
9941;DHT22;5009;50.656;7.188;2023-10-08T17:41:29;18.20;99.90
9941;DHT22;5009;50.656;7.188;2023-10-08T17:43:54;18.20;99.90
9941;DHT22;5009;50.656;7.188;2023-10-08T17:46:20;18.20;99.90
9941;DHT22;5009;50.656;7.188;2023-10-08T17:48:46;17.90;99.90
9941;DHT22;5009;50.656;7.188;2023-10-08T17:51:12;17.80;99.90
9941;DHT22;5009;50.656;7.188;2023-10-08T17:53:40;17.90;99.90
9941;DHT22;5009;50.656;7.188;2023-10-08T17:56:06;17.80;99.90
9941;DHT22;5009;50.656;7.188;2023-10-08T17:58:33;17.80;99.90
9941;DHT22;5009;50.656;7.188;2023-10-08T18:01:07;17.80;99.90
9941;DHT22;5009;50.656;7.188;2023-10-08T18:03:35;17.70;99.90
9941;DHT22;5009;50.656;7.188;2023-10-08T18:06:01;17.70;99.90
9941;DHT22;5009;50.656;7.188;2023-10-08T18:08:29;17.70;99.90
9941;DHT22;5009;50.656;7.188;2023-10-08T18:10:55;17.60;99.90
9941;DHT22;5009;50.656;7.188;2023-10-08T18:13:27;17.50;99.90
9941;DHT22;5009;50.656;7.188;2023-10-08T18:15:58;17.30;99.90
9941;DHT22;5009;50.656;7.188;2023-10-08T18:18:24;17.30;99.90
9941;DHT22;5009;50.656;7.188;2023-10-08T18:20:54;17.30;99.90
9941;DHT22;5009;50.656;7.188;2023-10-08T18:23:23;17.30;99.90
9941;DHT22;5009;50.656;7.188;2023-10-08T18:25:49;17.30;99.90
9941;DHT22;5009;50.656;7.188;2023-10-08T18:28:17;17.30;99.90
9941;DHT22;5009;50.656;7.188;2023-10-08T18:30:43;17.30;99.90
9941;DHT22;5009;50.656;7.188;2023-10-08T18:33:09;17.30;99.90
9941;DHT22;5009;50.656;7.188;2023-10-08T18:35:36;17.30;99.90
9941;DHT22;5009;50.656;7.188;2023-10-08T18:38:03;17.20;99.90
9941;DHT22;5009;50.656;7.188;2023-10-08T18:40:29;17.20;99.90
9941;DHT22;5009;50.656;7.188;2023-10-08T18:42:57;17.20;99.90
9941;DHT22;5009;50.656;7.188;2023-10-08T18:45:23;17.10;99.90
9941;DHT22;5009;50.656;7.188;2023-10-08T18:47:48;17.10;99.90
9941;DHT22;5009;50.656;7.188;2023-10-08T18:50:15;17.10;99.90
9941;DHT22;5009;50.656;7.188;2023-10-08T18:52:40;17.00;99.90
9941;DHT22;5009;50.656;7.188;2023-10-08T18:55:07;17.00;99.90
9941;DHT22;5009;50.656;7.188;2023-10-08T18:57:33;17.00;99.90
9941;DHT22;5009;50.656;7.188;2023-10-08T19:00:00;16.90;99.90
9941;DHT22;5009;50.656;7.188;2023-10-08T19:02:25;16.90;99.90
9941;DHT22;5009;50.656;7.188;2023-10-08T19:04:52;16.80;99.90
9941;DHT22;5009;50.656;7.188;2023-10-08T19:07:19;16.90;99.90
9941;DHT22;5009;50.656;7.188;2023-10-08T19:09:44;16.80;99.90
9941;DHT22;5009;50.656;7.188;2023-10-08T19:12:10;16.80;99.90
9941;DHT22;5009;50.656;7.188;2023-10-08T19:14:36;16.80;99.90
9941;DHT22;5009;50.656;7.188;2023-10-08T19:17:03;16.80;99.90
9941;DHT22;5009;50.656;7.188;2023-10-08T19:19:30;16.80;99.90
9941;DHT22;5009;50.656;7.188;2023-10-08T19:21:58;16.80;99.90
9941;DHT22;5009;50.656;7.188;2023-10-08T19:24:24;16.80;99.90
9941;DHT22;5009;50.656;7.188;2023-10-08T19:26:50;16.80;99.90
9941;DHT22;5009;50.656;7.188;2023-10-08T19:29:15;16.70;99.90
9941;DHT22;5009;50.656;7.188;2023-10-08T19:31:43;16.70;99.90
9941;DHT22;5009;50.656;7.188;2023-10-08T19:34:09;16.60;99.90
9941;DHT22;5009;50.656;7.188;2023-10-08T19:36:38;16.60;99.90
9941;DHT22;5009;50.656;7.188;2023-10-08T19:39:05;16.50;99.90
9941;DHT22;5009;50.656;7.188;2023-10-08T19:41:32;16.50;99.90
9941;DHT22;5009;50.656;7.188;2023-10-08T19:43:58;16.40;99.90
9941;DHT22;5009;50.656;7.188;2023-10-08T19:46:24;16.40;99.90
9941;DHT22;5009;50.656;7.188;2023-10-08T19:48:51;16.30;99.90
9941;DHT22;5009;50.656;7.188;2023-10-08T19:51:17;16.30;99.90
9941;DHT22;5009;50.656;7.188;2023-10-08T19:53:43;16.30;99.90
9941;DHT22;5009;50.656;7.188;2023-10-08T19:56:09;16.30;99.90
9941;DHT22;5009;50.656;7.188;2023-10-08T19:58:40;16.20;99.90
9941;DHT22;5009;50.656;7.188;2023-10-08T20:01:06;16.20;99.90
9941;DHT22;5009;50.656;7.188;2023-10-08T20:03:31;16.20;99.90
9941;DHT22;5009;50.656;7.188;2023-10-08T20:05:57;16.20;99.90
9941;DHT22;5009;50.656;7.188;2023-10-08T20:08:23;16.20;99.90
9941;DHT22;5009;50.656;7.188;2023-10-08T20:10:49;16.10;99.90
9941;DHT22;5009;50.656;7.188;2023-10-08T20:13:16;16.10;99.90
9941;DHT22;5009;50.656;7.188;2023-10-08T20:15:43;16.00;99.90
9941;DHT22;5009;50.656;7.188;2023-10-08T20:18:10;16.00;99.90
9941;DHT22;5009;50.656;7.188;2023-10-08T20:20:37;16.00;99.90
9941;DHT22;5009;50.656;7.188;2023-10-08T20:23:03;16.00;99.90
9941;DHT22;5009;50.656;7.188;2023-10-08T20:25:38;16.00;99.90
9941;DHT22;5009;50.656;7.188;2023-10-08T20:28:07;15.90;99.90
9941;DHT22;5009;50.656;7.188;2023-10-08T20:30:33;15.90;99.90